Time;durP1;ratioP1;P1;durP2;ratioP2;P2;SDS_P1;SDS_P2;PMS_P1;PMS_P2;Temp;Humidity;BMP_temperature;BMP_pressure;BME280_temperature;BME280_humidity;BME280_pressure;Samples;Min_cycle;Max_cycle;Signal;HPM_P1;HPM_P2
2022/05/31 00:00:56;;;;;;;7.53;4.55;;;;;;;13.22;100.00;100151.06;5074815;28;20545;-70
2022/05/31 00:03:24;;;;;;;10.32;5.38;;;;;;;13.24;100.00;100155.38;5074499;28;20075;-72
2022/05/31 00:05:54;;;;;;;10.20;5.68;;;;;;;13.21;100.00;100150.22;5073259;28;20094;-74
2022/05/31 00:08:22;;;;;;;9.00;5.20;;;;;;;13.10;100.00;100140.25;5074266;28;20127;-73
2022/05/31 00:10:50;;;;;;;8.32;5.07;;;;;;;13.05;100.00;100129.03;5074617;28;20119;-75
2022/05/31 00:13:18;;;;;;;9.00;5.38;;;;;;;13.04;100.00;100127.34;5074182;28;20106;-75
2022/05/31 00:15:47;;;;;;;10.52;5.78;;;;;;;13.06;100.00;100132.56;5074235;28;20045;-74
2022/05/31 00:18:15;;;;;;;7.85;5.20;;;;;;;12.99;100.00;100145.53;5073982;28;20448;-75
2022/05/31 00:20:44;;;;;;;9.27;5.18;;;;;;;12.97;100.00;100149.31;5074456;28;20043;-74
2022/05/31 00:23:14;;;;;;;8.85;5.30;;;;;;;12.95;100.00;100149.41;5074195;28;20500;-76
2022/05/31 00:25:42;;;;;;;8.25;5.22;;;;;;;12.90;100.00;100152.41;5074441;28;20071;-73
2022/05/31 00:28:10;;;;;;;8.93;5.45;;;;;;;12.84;100.00;100149.34;5073985;28;20533;-74
2022/05/31 00:30:39;;;;;;;7.85;5.25;;;;;;;12.76;100.00;100154.38;5074166;28;20040;-73
2022/05/31 00:33:10;;;;;;;9.70;5.45;;;;;;;12.70;100.00;100163.66;5074029;28;20051;-73
2022/05/31 00:35:45;;;;;;;10.68;5.20;;;;;;;12.67;100.00;100168.41;5074236;28;20123;-73
2022/05/31 00:38:15;;;;;;;8.65;4.97;;;;;;;12.69;100.00;100161.97;5073827;28;20071;-73
2022/05/31 00:40:43;;;;;;;8.13;5.30;;;;;;;12.67;100.00;100166.56;5073695;28;20482;-71
2022/05/31 00:43:14;;;;;;;8.07;5.18;;;;;;;12.64;100.00;100165.91;5073743;28;20036;-73
2022/05/31 00:45:46;;;;;;;10.00;5.30;;;;;;;12.63;100.00;100169.56;5073626;28;20044;-73
2022/05/31 00:48:18;;;;;;;10.40;6.10;;;;;;;12.60;100.00;100171.47;5073466;28;20067;-74
2022/05/31 00:50:51;;;;;;;9.20;5.18;;;;;;;12.63;100.00;100174.91;5074056;28;20119;-74
2022/05/31 00:53:25;;;;;;;9.68;6.65;;;;;;;12.53;100.00;100180.91;5073688;28;20036;-73
2022/05/31 00:55:57;;;;;;;11.65;7.05;;;;;;;12.56;100.00;100174.50;5073635;28;20080;-73
2022/05/31 00:58:30;;;;;;;9.93;7.75;;;;;;;12.53;100.00;100186.25;5072507;28;20048;-73
2022/05/31 01:01:00;;;;;;;;;;;;;;;12.58;100.00;100184.13;5074404;28;20050;-75
2022/05/31 01:03:29;;;;;;;10.95;7.43;;;;;;;12.54;100.00;100182.59;5073393;28;19927;-73
2022/05/31 01:05:57;;;;;;;9.00;7.43;;;;;;;12.48;100.00;100177.69;5073380;28;20048;-72
2022/05/31 01:08:27;;;;;;;11.88;7.80;;;;;;;12.45;100.00;100185.94;5071546;28;20053;-72
2022/05/31 01:10:56;;;;;;;9.93;7.63;;;;;;;12.43;100.00;100189.66;5073354;28;20131;-72
2022/05/31 01:13:24;;;;;;;12.18;7.63;;;;;;;12.43;100.00;100185.16;5073269;28;20401;-72
2022/05/31 01:16:02;;;;;;;9.75;7.10;;;;;;;12.39;100.00;100194.38;5073505;28;20141;-72
2022/05/31 01:18:31;;;;;;;13.05;8.65;;;;;;;12.33;100.00;100198.31;5073256;28;20059;-72
2022/05/31 01:21:01;;;;;;;10.32;7.80;;;;;;;12.26;100.00;100193.53;5073384;28;20047;-72
2022/05/31 01:23:35;;;;;;;11.45;7.38;;;;;;;12.17;100.00;100194.13;5072880;28;20044;-71
2022/05/31 01:26:13;;;;;;;12.85;7.47;;;;;;;12.11;100.00;100200.75;5073496;28;20041;-72
2022/05/31 01:28:53;;;;;;;10.75;7.30;;;;;;;12.08;100.00;100200.09;5073418;28;20052;-72
2022/05/31 01:31:27;;;;;;;9.43;6.80;;;;;;;12.04;100.00;100197.63;5073165;28;20119;-73
2022/05/31 01:34:01;;;;;;;10.73;6.57;;;;;;;12.05;100.00;100203.81;5072988;28;20452;-72
2022/05/31 01:36:35;;;;;;;10.27;7.28;;;;;;;12.48;100.00;100208.94;5073224;28;20045;-71
2022/05/31 01:39:08;;;;;;;9.07;6.93;;;;;;;12.55;100.00;100204.91;5073263;28;20102;-70
2022/05/31 01:41:42;;;;;;;8.88;6.05;;;;;;;12.47;100.00;100213.44;5073035;28;20037;-72
2022/05/31 01:44:17;;;;;;;8.30;5.63;;;;;;;12.21;100.00;100217.03;5073213;28;20417;-72
2022/05/31 01:46:47;;;;;;;10.00;5.82;;;;;;;12.06;100.00;100215.38;5073353;28;20043;-69
2022/05/31 01:49:17;;;;;;;8.45;6.13;;;;;;;12.02;100.00;100220.06;5073017;28;20047;-70
2022/05/31 01:51:47;;;;;;;10.35;6.13;;;;;;;12.17;100.00;100221.72;5073180;28;20041;-70
2022/05/31 01:54:18;;;;;;;9.25;6.45;;;;;;;12.12;100.00;100217.63;5072857;28;20068;-69
2022/05/31 01:56:50;;;;;;;10.35;6.05;;;;;;;12.07;100.00;100225.13;5072875;28;20044;-71
2022/05/31 01:59:18;;;;;;;9.68;6.80;;;;;;;12.13;100.00;100222.03;5074925;28;20044;-71
2022/05/31 02:01:47;;;;;;;10.95;7.13;;;;;;;12.11;100.00;100229.28;5076795;28;20071;-70
2022/05/31 02:04:17;;;;;;;13.00;7.22;;;;;;;12.01;100.00;100231.72;5076865;28;20401;-73
2022/05/31 02:06:47;;;;;;;10.27;6.70;;;;;;;12.07;100.00;100236.69;5077051;28;20045;-71
2022/05/31 02:09:16;;;;;;;11.93;6.75;;;;;;;12.12;100.00;100225.66;5076417;28;20044;-74
2022/05/31 02:11:44;;;;;;;11.38;6.32;;;;;;;11.99;100.00;100226.50;5076784;28;20036;-71
2022/05/31 02:14:12;;;;;;;10.70;7.10;;;;;;;11.88;100.00;100229.03;5075298;28;20413;-72
2022/05/31 02:16:41;;;;;;;11.27;6.80;;;;;;;11.80;100.00;100227.81;5076619;28;20424;-70
2022/05/31 02:19:23;;;;;;;8.60;6.70;;;;;;;11.72;100.00;100222.91;5076370;28;20078;-69
2022/05/31 02:21:55;;;;;;;10.55;7.20;;;;;;;11.70;100.00;100227.50;5076708;28;20122;-73
2022/05/31 02:24:25;;;;;;;12.13;7.10;;;;;;;11.63;100.00;100220.84;5076303;28;20068;-74
2022/05/31 02:26:54;;;;;;;10.90;7.30;;;;;;;11.64;100.00;100227.91;5076604;28;20533;-73
2022/05/31 02:29:24;;;;;;;11.88;6.95;;;;;;;11.72;100.00;100231.78;5076241;28;20441;-71
2022/05/31 02:31:54;;;;;;;10.73;7.45;;;;;;;11.69;100.00;100231.16;5076370;28;20529;-73
2022/05/31 02:34:25;;;;;;;10.25;7.05;;;;;;;11.78;100.00;100230.53;5075742;28;20048;-74
2022/05/31 02:36:55;;;;;;;13.63;8.20;;;;;;;11.82;100.00;100232.09;5076331;28;20051;-74
2022/05/31 02:39:24;;;;;;;12.82;8.23;;;;;;;11.80;100.00;100233.16;5076144;28;20449;-74
2022/05/31 02:41:53;;;;;;;14.45;8.68;;;;;;;12.01;100.00;100237.94;5075928;28;20429;-73
2022/05/31 02:44:21;;;;;;;17.77;9.07;;;;;;;12.02;100.00;100239.63;5075859;28;20049;-74
2022/05/31 02:46:50;;;;;;;11.88;8.52;;;;;;;11.96;100.00;100239.19;5076133;28;20094;-73
2022/05/31 02:49:19;;;;;;;12.73;8.32;;;;;;;11.98;100.00;100238.16;5075831;28;20106;-74
2022/05/31 02:51:47;;;;;;;16.17;9.05;;;;;;;11.90;100.00;100240.47;5074980;28;20052;-73
2022/05/31 02:54:20;;;;;;;11.90;8.10;;;;;;;11.73;100.00;100238.84;5075947;28;20075;-73
2022/05/31 02:56:49;;;;;;;11.35;7.80;;;;;;;11.62;100.00;100232.50;5075748;28;20086;-73
2022/05/31 02:59:17;;;;;;;11.50;7.25;;;;;;;11.78;100.00;100235.03;5075604;28;20123;-73
2022/05/31 03:01:49;;;;;;;15.10;7.70;;;;;;;11.74;100.00;100234.38;5076154;28;20561;-74
2022/05/31 03:04:17;;;;;;;11.73;7.80;;;;;;;11.63;100.00;100236.88;5075894;28;20047;-74
2022/05/31 03:06:47;;;;;;;13.65;8.02;;;;;;;11.54;100.00;100237.47;5075772;28;20086;-73
2022/05/31 03:09:17;;;;;;;12.05;8.30;;;;;;;11.57;100.00;100237.25;5075255;28;20106;-73
2022/05/31 03:11:50;;;;;;;11.20;7.15;;;;;;;11.58;100.00;100247.00;5075854;28;20127;-73
2022/05/31 03:14:23;;;;;;;12.80;7.65;;;;;;;11.63;100.00;100234.19;5075436;28;20095;-73
2022/05/31 03:16:57;;;;;;;11.35;7.13;;;;;;;11.62;100.00;100236.03;5075744;28;20039;-73
2022/05/31 03:19:32;;;;;;;11.00;7.47;;;;;;;11.71;100.00;100238.09;5074418;28;20053;-73
2022/05/31 03:22:04;;;;;;;12.63;7.25;;;;;;;11.85;100.00;100237.22;5075511;28;20037;-73
2022/05/31 03:24:39;;;;;;;11.00;6.95;;;;;;;12.00;100.00;100232.69;5075322;28;20040;-73
2022/05/31 03:27:10;;;;;;;11.50;6.68;;;;;;;12.07;100.00;100225.13;5075554;28;20093;-72
2022/05/31 03:29:42;;;;;;;11.48;7.13;;;;;;;12.21;100.00;100217.03;5075241;28;20044;-72
2022/05/31 03:32:11;;;;;;;11.05;7.13;;;;;;;12.22;100.00;100224.09;5075434;28;20076;-72
2022/05/31 03:34:39;;;;;;;10.77;7.53;;;;;;;12.40;100.00;100222.84;5075153;28;20048;-72
2022/05/31 03:37:07;;;;;;;11.07;8.00;;;;;;;12.64;100.00;100219.44;5075135;28;20032;-73
2022/05/31 03:39:37;;;;;;;10.88;7.75;;;;;;;13.12;100.00;100223.16;5074030;28;20056;-73
2022/05/31 03:42:06;;;;;;;10.95;7.32;;;;;;;13.91;100.00;100219.25;5075190;28;20068;-73
2022/05/31 03:44:35;;;;;;;13.02;6.88;;;;;;;14.68;100.00;100212.47;5073641;28;20071;-74
2022/05/31 03:47:05;;;;;;;13.73;7.15;;;;;;;15.27;100.00;100220.31;5075220;28;20123;-74
2022/05/31 03:49:34;;;;;;;11.38;6.10;;;;;;;16.07;100.00;100221.88;5074762;28;20040;-74
2022/05/31 03:52:04;;;;;;;10.50;6.03;;;;;;;16.72;100.00;100228.94;5074872;28;20045;-74
2022/05/31 03:54:35;;;;;;;13.23;7.22;;;;;;;17.29;100.00;100233.78;5074498;28;20072;-74
2022/05/31 03:57:06;;;;;;;15.38;7.00;;;;;;;17.72;100.00;100229.97;5075034;28;20485;-73
2022/05/31 03:59:36;;;;;;;12.80;6.95;;;;;;;18.20;100.00;100235.44;5074640;28;20072;-72
2022/05/31 04:02:06;;;;;;;13.32;8.15;;;;;;;18.55;100.00;100234.84;5074872;28;20040;-73
2022/05/31 04:04:35;;;;;;;11.18;7.30;;;;;;;18.87;100.00;100234.53;5073526;28;20139;-73
2022/05/31 04:07:04;;;;;;;10.00;7.53;;;;;;;19.22;100.00;100237.59;5074422;28;20036;-73
2022/05/31 04:09:34;;;;;;;11.82;7.15;;;;;;;19.32;100.00;100241.94;5074119;28;20090;-73
2022/05/31 04:12:03;;;;;;;10.98;7.18;;;;;;;19.41;100.00;100243.75;5073265;28;20055;-73
2022/05/31 04:14:32;;;;;;;11.50;8.00;;;;;;;19.62;100.00;100240.00;5073875;28;20048;-73
2022/05/31 04:17:00;;;;;;;11.98;7.50;;;;;;;20.15;100.00;100245.47;5074266;28;20135;-73
2022/05/31 04:19:35;;;;;;;10.88;7.25;;;;;;;20.50;100.00;100247.38;5074272;28;20071;-73
2022/05/31 04:22:03;;;;;;;11.73;7.50;;;;;;;20.43;100.00;100243.56;5073522;28;20444;-73
2022/05/31 04:24:31;;;;;;;11.57;7.55;;;;;;;20.87;100.00;100238.19;5074026;28;20048;-73
2022/05/31 04:27:00;;;;;;;11.48;8.20;;;;;;;20.95;100.00;100229.25;5073037;28;20512;-73
2022/05/31 04:29:28;;;;;;;13.43;7.72;;;;;;;21.39;100.00;100232.75;5073898;28;20051;-73
2022/05/31 04:31:58;;;;;;;12.93;7.93;;;;;;;21.04;100.00;100239.16;5074219;28;20119;-74
2022/05/31 04:34:27;;;;;;;12.20;7.57;;;;;;;21.30;100.00;100233.72;5073788;28;20131;-74
2022/05/31 04:36:55;;;;;;;10.75;6.82;;;;;;;21.36;100.00;100238.50;5073736;28;20176;-74
2022/05/31 04:39:23;;;;;;;10.65;6.60;;;;;;;21.74;97.71;100234.41;5073936;28;20045;-74
2022/05/31 04:41:51;;;;;;;11.82;6.20;;;;;;;21.82;87.94;100236.31;5073891;28;20082;-74
2022/05/31 04:44:20;;;;;;;6.97;5.35;;;;;;;21.65;88.17;100233.53;5073607;28;20071;-73
2022/05/31 04:46:48;;;;;;;12.32;6.07;;;;;;;21.81;87.06;100238.19;5073616;28;20046;-73
2022/05/31 04:49:18;;;;;;;10.45;5.10;;;;;;;22.47;84.83;100231.00;5073878;28;20045;-73
2022/05/31 04:51:46;;;;;;;6.35;4.30;;;;;;;22.01;81.64;100233.31;5072081;28;20075;-73
2022/05/31 04:54:16;;;;;;;7.90;4.45;;;;;;;22.00;80.90;100234.31;5073399;28;20067;-73
2022/05/31 04:56:45;;;;;;;8.57;4.80;;;;;;;22.36;72.20;100237.63;5073468;28;20462;-74
2022/05/31 04:59:13;;;;;;;7.00;4.40;;;;;;;23.09;62.89;100228.63;5073695;28;20083;-73
2022/05/31 05:01:41;;;;;;;7.28;5.00;;;;;;;23.37;56.67;100231.78;5073418;28;20040;-74
2022/05/31 05:04:09;;;;;;;6.22;4.32;;;;;;;23.48;51.07;100230.53;5072522;28;20056;-74
2022/05/31 05:06:40;;;;;;;7.05;4.47;;;;;;;23.19;51.48;100223.81;5073293;28;20036;-74
2022/05/31 05:09:08;;;;;;;7.40;4.63;;;;;;;22.64;53.10;100219.13;5073911;28;20040;-73
2022/05/31 05:11:36;;;;;;;6.90;4.68;;;;;;;22.79;52.81;100228.28;5073220;28;20044;-71
2022/05/31 05:14:04;;;;;;;6.82;4.20;;;;;;;24.25;47.76;100226.91;5073415;28;20123;-72
2022/05/31 05:16:33;;;;;;;6.18;3.63;;;;;;;23.82;47.56;100219.31;5073042;28;20393;-72
2022/05/31 05:19:01;;;;;;;6.75;4.03;;;;;;;24.15;46.77;100225.44;5072052;28;20044;-73
2022/05/31 05:21:29;;;;;;;5.43;3.50;;;;;;;24.21;46.38;100228.28;5073046;28;20059;-73
2022/05/31 05:23:59;;;;;;;4.97;3.38;;;;;;;24.06;45.30;100227.38;5072117;28;20123;-71
2022/05/31 05:26:27;;;;;;;6.35;3.47;;;;;;;23.93;46.75;100222.53;5072871;28;20037;-71
2022/05/31 05:31:42;;;;;;;6.72;2.90;;;;;;;23.46;45.54;100235.31;5072977;28;20072;-73
2022/05/31 05:34:10;;;;;;;7.10;3.22;;;;;;;22.75;46.50;100236.94;5073180;28;20094;-72
2022/05/31 05:36:38;;;;;;;5.85;3.22;;;;;;;23.17;45.88;100231.31;5072684;28;20124;-71
2022/05/31 05:39:10;;;;;;;7.50;3.40;;;;;;;22.98;47.17;100238.00;5072049;28;20132;-71
2022/05/31 05:41:40;;;;;;;6.03;3.22;;;;;;;23.37;46.62;100239.94;5072995;28;20047;-70
2022/05/31 05:44:09;;;;;;;4.70;3.30;;;;;;;23.92;44.81;100237.13;5072800;28;20063;-73
2022/05/31 05:46:37;;;;;;;6.00;3.40;;;;;;;24.01;44.50;100235.22;5072802;28;20075;-74
2022/05/31 05:49:06;;;;;;;5.05;2.97;;;;;;;23.93;45.28;100238.88;5072759;28;20405;-74
2022/05/31 05:51:35;;;;;;;6.18;3.50;;;;;;;24.20;43.86;100233.91;5072617;28;20131;-73
2022/05/31 05:54:04;;;;;;;5.93;3.45;;;;;;;24.21;44.17;100236.44;5072963;28;20040;-73
2022/05/31 05:56:33;;;;;;;6.85;3.75;;;;;;;24.90;42.61;100231.00;5071939;28;20099;-70
2022/05/31 05:59:01;;;;;;;8.88;3.40;;;;;;;25.58;41.43;100229.91;5074438;28;20482;-72
2022/05/31 06:01:34;;;;;;;7.63;4.00;;;;;;;26.15;39.50;100231.03;5072640;28;20044;-72
2022/05/31 06:04:27;;;;;;;8.10;3.63;;;;;;;26.75;37.58;100230.59;5071644;28;20056;-73
2022/05/31 06:07:05;;;;;;;6.57;3.70;;;;;;;26.20;39.14;100228.56;5070831;28;20055;-72
2022/05/31 06:09:35;;;;;;;5.75;3.08;;;;;;;26.05;38.41;100235.97;5072216;28;20045;-73
2022/05/31 06:12:11;;;;;;;7.43;4.00;;;;;;;26.56;37.03;100234.00;5072474;28;20119;-72
2022/05/31 06:14:43;;;;;;;7.38;3.58;;;;;;;25.65;39.07;100225.38;5072203;28;20044;-72
2022/05/31 06:17:16;;;;;;;6.50;3.10;;;;;;;26.28;38.69;100227.59;5072435;28;20048;-72
2022/05/31 06:19:48;;;;;;;6.60;3.25;;;;;;;26.47;37.53;100237.94;5072516;28;20127;-73
2022/05/31 06:22:17;;;;;;;6.72;2.92;;;;;;;26.11;37.63;100236.03;5072316;28;20106;-72
2022/05/31 06:24:46;;;;;;;5.32;3.10;;;;;;;26.45;38.42;100240.00;5070968;28;20048;-72
2022/05/31 06:27:16;;;;;;;5.35;2.97;;;;;;;26.84;37.19;100241.41;5072594;28;20047;-73
2022/05/31 06:29:44;;;;;;;4.38;2.90;;;;;;;26.95;36.76;100238.13;5072397;28;20049;-70
2022/05/31 06:32:14;;;;;;;5.35;3.67;;;;;;;27.04;37.34;100242.44;5072312;28;20139;-70
2022/05/31 06:34:42;;;;;;;6.00;3.30;;;;;;;27.16;36.42;100235.34;5072764;28;20040;-74
2022/05/31 06:37:13;;;;;;;5.80;3.15;;;;;;;27.21;36.83;100238.31;5072615;28;20542;-74
2022/05/31 06:39:43;;;;;;;6.43;3.42;;;;;;;27.30;36.93;100237.13;5070859;28;20132;-73
2022/05/31 06:42:12;;;;;;;7.35;3.75;;;;;;;27.20;36.23;100244.84;5072691;28;20142;-73
2022/05/31 06:44:44;;;;;;;6.65;3.50;;;;;;;27.24;36.16;100248.91;5074192;28;20055;-71
2022/05/31 06:47:13;;;;;;;6.30;3.30;;;;;;;26.92;36.15;100247.56;5075035;28;20400;-72
2022/05/31 06:49:42;;;;;;;5.03;3.25;;;;;;;27.32;35.99;100246.00;5075451;28;20075;-74
2022/05/31 06:57:46;;;;;;;6.80;2.80;;;;;;;23.73;41.67;100262.09;5075249;28;20052;-71
2022/05/31 07:00:19;;;;;;;8.32;3.53;;;;;;;23.57;42.05;100271.16;5075586;28;20041;-73
2022/05/31 07:02:47;;;;;;;;;;;;;;;22.99;44.13;100266.03;5075861;28;20040;-74
2022/05/31 07:05:17;;;;;;;5.18;3.10;;;;;;;23.36;43.67;100254.56;5075484;28;20007;-73
2022/05/31 07:07:45;;;;;;;6.20;3.33;;;;;;;23.37;43.02;100254.38;5075400;28;20075;-73
2022/05/31 07:10:14;;;;;;;5.57;3.05;;;;;;;23.56;43.51;100253.13;5075693;28;20041;-73
2022/05/31 07:12:43;;;;;;;6.05;3.10;;;;;;;23.69;43.41;100252.59;5075389;28;20127;-73
2022/05/31 07:15:12;;;;;;;6.80;3.20;;;;;;;23.12;44.25;100255.47;5075937;28;20535;-73
2022/05/31 07:17:44;;;;;;;6.00;3.08;;;;;;;23.18;44.43;100253.94;5075386;28;20433;-73
2022/05/31 07:20:12;;;;;;;4.43;2.80;;;;;;;22.94;44.38;100252.09;5074273;28;20099;-73
2022/05/31 07:22:41;;;;;;;5.57;3.38;;;;;;;23.16;44.46;100248.63;5075359;28;20045;-73
2022/05/31 07:25:11;;;;;;;6.72;2.70;;;;;;;23.04;44.73;100255.47;5075415;28;20115;-73
2022/05/31 07:27:40;;;;;;;5.97;3.00;;;;;;;23.12;44.11;100256.31;5075091;28;20127;-73
2022/05/31 07:30:09;;;;;;;6.57;3.00;;;;;;;23.02;43.15;100249.38;5074227;28;20045;-73
2022/05/31 07:32:37;;;;;;;7.57;2.88;;;;;;;22.81;44.46;100258.88;5075145;28;20466;-76
2022/05/31 07:35:27;;;;;;;6.25;3.30;;;;;;;22.74;45.18;100257.84;5075103;28;20090;-73
2022/05/31 07:37:56;;;;;;;5.93;2.97;;;;;;;22.54;45.93;100259.22;5074545;28;20048;-73
2022/05/31 07:40:24;;;;;;;5.57;3.30;;;;;;;22.39;45.03;100261.78;5075042;28;20045;-72
2022/05/31 07:42:53;;;;;;;5.50;3.30;;;;;;;22.59;45.58;100259.56;5074635;28;20051;-73
2022/05/31 07:45:23;;;;;;;7.93;3.17;;;;;;;22.82;44.50;100266.00;5073963;28;20056;-73
2022/05/31 07:47:51;;;;;;;7.10;3.65;;;;;;;22.79;43.85;100260.91;5075096;28;20040;-73
2022/05/31 07:50:20;;;;;;;7.72;3.30;;;;;;;22.96;42.98;100261.75;5074975;28;20390;-73
2022/05/31 07:52:50;;;;;;;5.72;3.10;;;;;;;22.89;42.91;100268.09;5074781;28;20397;-73
2022/05/31 07:55:18;;;;;;;5.10;3.33;;;;;;;22.00;44.44;100264.19;5073395;28;20080;-72
2022/05/31 08:00:32;;;;;;;6.07;3.17;;;;;;;22.12;44.99;100264.78;5074548;28;20048;-73
2022/05/31 08:03:00;;;;;;;5.93;3.60;;;;;;;21.98;44.65;100268.94;5074458;28;20123;-73
2022/05/31 08:05:30;;;;;;;5.95;3.10;;;;;;;21.62;46.09;100269.16;5074351;28;20071;-72
2022/05/31 08:07:59;;;;;;;6.55;2.97;;;;;;;21.87;46.87;100269.25;5073962;28;20098;-73
2022/05/31 08:10:47;;;;;;;6.07;3.13;;;;;;;22.04;46.93;100265.56;5074216;28;20036;-73
2022/05/31 08:13:16;;;;;;;6.65;3.55;;;;;;;22.06;46.72;100268.97;5074225;28;20405;-73
2022/05/31 08:15:44;;;;;;;7.28;3.42;;;;;;;22.17;46.88;100271.38;5074207;28;20123;-73
2022/05/31 08:18:12;;;;;;;6.07;3.70;;;;;;;22.33;46.64;100273.28;5074379;28;20040;-73
2022/05/31 08:20:41;;;;;;;7.22;3.50;;;;;;;22.59;45.80;100272.31;5072586;28;20049;-74
2022/05/31 08:23:10;;;;;;;7.18;3.70;;;;;;;22.89;45.56;100268.09;5072949;28;20076;-73
2022/05/31 08:25:38;;;;;;;5.88;3.55;;;;;;;23.17;44.77;100280.28;5074260;28;20440;-73
2022/05/31 08:28:07;;;;;;;6.88;3.97;;;;;;;23.17;45.07;100276.72;5073250;28;20536;-73
2022/05/31 08:30:35;;;;;;;6.15;3.88;;;;;;;22.43;46.16;100270.41;5074137;28;20557;-72
2022/05/31 08:33:04;;;;;;;7.97;4.30;;;;;;;22.33;45.86;100275.16;5072663;28;20052;-73
2022/05/31 08:35:32;;;;;;;6.00;3.60;;;;;;;22.31;45.82;100278.06;5073964;28;20115;-73
2022/05/31 08:38:22;;;;;;;7.65;3.75;;;;;;;22.57;46.28;100280.63;5073641;28;20063;-73
2022/05/31 08:41:03;;;;;;;6.18;3.22;;;;;;;22.72;46.09;100281.66;5073836;28;20119;-74
2022/05/31 08:43:51;;;;;;;6.95;3.45;;;;;;;23.07;45.25;100279.63;5074038;28;20037;-73
2022/05/31 08:46:28;;;;;;;6.75;3.38;;;;;;;23.33;44.13;100273.94;5073902;28;20435;-73
2022/05/31 08:48:59;;;;;;;5.88;3.40;;;;;;;23.30;43.60;100285.19;5073629;28;20072;-73
2022/05/31 08:51:54;;;;;;;6.75;3.50;;;;;;;23.27;44.53;100280.94;5072571;28;20052;-73
2022/05/31 08:57:37;;;;;;;6.43;3.67;;;;;;;22.90;44.94;100267.06;5073767;28;20139;-73
2022/05/31 09:00:18;;;;;;;6.05;3.72;;;;;;;22.70;45.71;100270.09;5073676;28;20139;-73
2022/05/31 09:02:51;;;;;;;5.95;3.33;;;;;;;22.64;45.95;100269.91;5073495;28;20041;-73
2022/05/31 09:05:30;;;;;;;7.18;3.45;;;;;;;22.65;46.04;100258.88;5072567;28;20528;-72
2022/05/31 09:08:04;;;;;;;5.15;3.15;;;;;;;22.87;45.73;100270.94;5072961;28;20044;-75
2022/05/31 09:10:42;;;;;;;4.85;3.20;;;;;;;23.13;45.53;100263.44;5073269;28;20048;-74
2022/05/31 09:13:16;;;;;;;7.80;3.70;;;;;;;23.35;44.41;100267.28;5073806;28;20492;-74
2022/05/31 09:15:50;;;;;;;8.18;3.60;;;;;;;23.37;44.05;100259.84;5073302;28;20044;-74
2022/05/31 09:18:25;;;;;;;7.78;3.70;;;;;;;23.50;44.25;100264.72;5073535;28;20094;-75
2022/05/31 09:20:55;;;;;;;7.35;3.22;;;;;;;23.46;44.13;100257.09;5073273;28;20048;-74
2022/05/31 09:23:26;;;;;;;6.97;3.38;;;;;;;23.60;43.57;100259.94;5073426;28;20120;-74
2022/05/31 09:26:06;;;;;;;6.28;3.00;;;;;;;23.50;43.84;100262.00;5073247;28;20044;-75
2022/05/31 09:28:43;;;;;;;6.90;3.50;;;;;;;23.60;43.88;100264.53;5071941;28;20049;-74
2022/05/31 09:31:21;;;;;;;6.30;3.00;;;;;;;23.53;43.90;100264.34;5073444;28;20474;-74
2022/05/31 09:34:10;;;;;;;7.97;3.47;;;;;;;23.56;44.13;100268.63;5073092;28;20041;-74
2022/05/31 09:36:46;;;;;;;6.45;3.47;;;;;;;23.54;44.12;100259.75;5073377;28;20123;-74
2022/05/31 09:39:22;;;;;;;6.70;3.70;;;;;;;23.58;44.16;100256.53;5073434;28;20127;-74
2022/05/31 09:41:58;;;;;;;5.82;3.15;;;;;;;23.58;44.61;100263.84;5073001;28;20037;-74
2022/05/31 09:44:37;;;;;;;6.97;3.50;;;;;;;23.46;44.54;100252.50;5073250;28;20079;-74
2022/05/31 09:47:12;;;;;;;6.10;3.20;;;;;;;23.85;43.50;100254.41;5072937;28;20532;-74
2022/05/31 09:49:43;;;;;;;5.80;3.60;;;;;;;23.70;43.57;100257.84;5072773;28;20086;-74
2022/05/31 09:52:16;;;;;;;5.22;3.20;;;;;;;23.79;43.53;100253.22;5072983;28;20123;-74
2022/05/31 09:57:58;;;;;;;7.25;4.10;;;;;;;23.70;43.99;100255.13;5073053;28;19921;-75
2022/05/31 10:00:26;;;;;;;6.78;3.00;;;;;;;23.47;44.50;100259.63;5071855;28;20477;-74
2022/05/31 10:03:03;;;;;;;7.88;3.20;;;;;;;23.73;44.42;100256.66;5072469;28;20086;-75
2022/05/31 10:05:32;;;;;;;6.85;2.95;;;;;;;23.35;44.11;100253.69;5073066;28;20094;-74
2022/05/31 10:08:01;;;;;;;7.30;3.20;;;;;;;23.49;44.05;100243.13;5072438;28;20102;-74
2022/05/31 10:10:33;;;;;;;6.85;3.20;;;;;;;23.78;44.09;100245.22;5072465;28;20048;-75
2022/05/31 10:13:08;;;;;;;5.75;3.05;;;;;;;23.94;43.71;100248.72;5072700;28;20067;-74
2022/05/31 10:15:50;;;;;;;6.95;2.88;;;;;;;24.04;42.23;100245.78;5071665;28;20048;-74
2022/05/31 10:18:28;;;;;;;7.35;3.72;;;;;;;23.97;42.78;100248.38;5072683;28;20417;-74
2022/05/31 10:20:59;;;;;;;6.00;2.67;;;;;;;24.04;43.50;100244.94;5076227;28;20037;-74
2022/05/31 10:23:35;;;;;;;8.10;3.08;;;;;;;24.08;42.96;100244.38;5076519;28;20040;-74
2022/05/31 10:26:04;;;;;;;7.07;3.13;;;;;;;24.18;43.08;100246.88;5075469;28;20397;-74
2022/05/31 10:28:38;;;;;;;6.78;3.28;;;;;;;23.60;44.26;100245.47;5076515;28;20525;-74
2022/05/31 10:31:16;;;;;;;5.95;3.05;;;;;;;24.01;43.61;100237.09;5075302;28;20062;-74
2022/05/31 10:33:52;;;;;;;7.55;3.28;;;;;;;24.16;44.20;100243.50;5076564;28;20051;-74
2022/05/31 10:36:23;;;;;;;7.47;3.63;;;;;;;23.55;45.75;100224.22;5075433;28;20442;-74
2022/05/31 10:38:54;;;;;;;;;;;;;;;23.56;45.65;100235.94;5075674;28;20106;-74
2022/05/31 10:41:28;;;;;;;11.13;6.45;;;;;;;23.66;45.76;100237.47;5075049;28;19921;-74
2022/05/31 10:44:28;;;;;;;11.50;6.68;;;;;;;23.72;45.63;100232.31;5076373;28;20101;-73
2022/05/31 10:47:02;;;;;;;12.15;7.07;;;;;;;23.85;45.70;100236.19;5076136;28;20454;-73
2022/05/31 10:49:32;;;;;;;11.27;6.97;;;;;;;23.80;45.07;100232.28;5074753;28;20049;-73
2022/05/31 10:52:07;;;;;;;12.75;7.05;;;;;;;24.21;43.79;100232.88;5074359;28;20051;-73
2022/05/31 10:54:49;;;;;;;14.52;8.45;;;;;;;23.90;44.46;100233.75;5074758;28;20049;-73
2022/05/31 10:57:33;;;;;;;13.43;7.65;;;;;;;23.78;44.93;100232.47;5074485;28;20049;-73
2022/05/31 11:00:08;;;;;;;9.93;6.63;;;;;;;23.73;44.60;100229.41;5075861;28;20472;-74
2022/05/31 11:02:54;;;;;;;11.07;6.75;;;;;;;23.46;45.94;100233.44;5075979;28;20074;-73
2022/05/31 11:05:28;;;;;;;12.88;8.07;;;;;;;24.01;44.78;100239.81;5075888;28;20044;-74
2022/05/31 11:13:59;;;;;;;11.35;6.63;;;;;;;24.79;41.96;100234.16;5075949;28;20048;-74
2022/05/31 11:16:40;;;;;;;13.38;6.57;;;;;;;24.86;42.59;100229.66;5075832;28;20040;-74
2022/05/31 11:19:21;;;;;;;11.27;6.80;;;;;;;24.44;42.84;100232.94;5075419;28;20463;-74
2022/05/31 11:22:02;;;;;;;11.95;6.35;;;;;;;24.31;42.62;100225.34;5075688;28;20067;-74
2022/05/31 11:24:46;;;;;;;10.52;6.43;;;;;;;23.95;43.71;100231.34;5076065;28;20044;-73
2022/05/31 11:27:39;;;;;;;10.35;5.80;;;;;;;23.82;44.61;100222.91;5075381;28;20413;-73
2022/05/31 11:30:21;;;;;;;11.23;6.15;;;;;;;23.54;44.80;100217.03;5074526;28;20090;-74
2022/05/31 11:33:16;;;;;;;9.52;5.70;;;;;;;23.39;46.13;100206.06;5075503;28;20041;-74
2022/05/31 11:35:56;;;;;;;12.45;6.15;;;;;;;23.28;45.83;100217.34;5075381;28;20107;-73
2022/05/31 11:38:34;;;;;;;10.07;5.68;;;;;;;23.39;45.96;100208.78;5075328;28;20049;-73
2022/05/31 11:41:11;;;;;;;8.70;5.32;;;;;;;23.33;46.40;100214.91;5075040;28;20068;-73
2022/05/31 11:44:29;;;;;;;10.25;5.50;;;;;;;23.32;46.04;100207.78;5075264;28;20526;-73
2022/05/31 11:47:05;;;;;;;8.88;4.90;;;;;;;23.21;46.05;100199.16;5074716;28;20127;-73
2022/05/31 11:49:45;;;;;;;8.13;5.40;;;;;;;23.14;47.17;100207.16;5073989;28;20106;-73
2022/05/31 11:52:31;;;;;;;9.25;5.03;;;;;;;23.28;46.44;100203.72;5074859;28;20163;-73
2022/05/31 11:55:28;;;;;;;8.93;4.90;;;;;;;23.39;45.25;100211.50;5074788;28;20076;-75
2022/05/31 11:58:34;;;;;;;8.15;4.35;;;;;;;23.52;45.53;100202.75;5074792;28;20398;-75
2022/05/31 12:01:09;;;;;;;7.10;4.18;;;;;;;23.40;45.76;100199.59;5074678;28;20055;-74
2022/05/31 12:03:47;;;;;;;10.30;4.32;;;;;;;23.52;44.75;100193.75;5074790;28;20036;-74
2022/05/31 12:06:28;;;;;;;8.02;3.97;;;;;;;23.07;45.46;100188.00;5074636;28;20044;-74